Terminal Aerodrome Forecast
Issued by NWS Green Bay, WI

Home | Current Version | Previous Version | Graphics & Text | Print | Product List | Glossary On
Versions: 1 2 3 4 5 6 7 8 9 10 11 12 13 14 15 16 17
000
FTUS43 KGRB 301315 AAA
TAFGRB
TAF AMD
KGRB 301315Z 3013/0112 06018G28KT 3SM -DZ BR OVC007 WS020/10040KT
      TEMPO 3013/3015 1SM -DZ BR OVC004
     FM301500 04018G27KT P6SM OVC021
     FM302200 04022G30KT 6SM -RA OVC012
     FM010400 05016G25KT 5SM RA OVC008 WS020/18040KT
     FM011100 13007KT 5SM -SHRA OVC008 WS020/18040KT=

USA.gov is the U.S. government's official web portal to all federal, state and local government web resources and services.